createdAt,value
2018-08-06T00:00:33.725Z,81.04
2018-08-06T00:03:03.206Z,80.81
2018-08-06T00:05:32.561Z,80.71
2018-08-06T00:08:01.887Z,81.26
2018-08-06T00:10:31.330Z,81.77
2018-08-06T00:13:00.949Z,81.18
2018-08-06T00:15:30.278Z,81.02
2018-08-06T00:17:59.697Z,81.71
2018-08-06T00:20:29.015Z,81.69
2018-08-06T00:22:58.311Z,81.73
2018-08-06T00:25:27.687Z,81.56
2018-08-06T00:27:57.153Z,81.67
2018-08-06T00:30:26.692Z,81.45
2018-08-06T00:32:56.100Z,81.99
2018-08-06T00:35:25.590Z,82.04
2018-08-06T00:37:55.419Z,82.80
2018-08-06T00:40:25.039Z,83.14
2018-08-06T00:42:54.507Z,83.39
2018-08-06T00:45:24.089Z,84.07
2018-08-06T00:47:54.119Z,84.14
2018-08-06T00:50:23.549Z,84.51
2018-08-06T00:52:53.075Z,84.75
2018-08-06T00:55:22.496Z,85.08
2018-08-06T00:57:52.118Z,85.00
2018-08-06T01:00:21.638Z,84.85
2018-08-06T01:02:51.353Z,84.75
2018-08-06T01:05:21.403Z,84.56
2018-08-06T01:07:50.807Z,84.69
2018-08-06T01:10:20.225Z,84.92
2018-08-06T01:12:49.565Z,85.08
2018-08-06T01:15:19.538Z,85.17
2018-08-06T01:17:49.622Z,85.74
2018-08-06T01:20:19.023Z,85.32
2018-08-06T01:22:49.614Z,85.19
2018-08-06T01:25:19.205Z,85.21
2018-08-06T01:27:48.712Z,85.29
2018-08-06T01:30:18.135Z,85.11
2018-08-06T01:32:47.547Z,85.20
2018-08-06T01:35:16.872Z,85.53
2018-08-06T01:37:46.077Z,85.71
2018-08-06T01:40:17.103Z,86.13
2018-08-06T01:42:46.445Z,85.98
2018-08-06T01:45:17.314Z,85.96
2018-08-06T01:47:47.140Z,85.89
2018-08-06T01:50:17.043Z,85.86
2018-08-06T01:52:46.826Z,86.33
2018-08-06T01:55:16.111Z,86.49
2018-08-06T01:57:45.434Z,86.64
2018-08-06T02:00:17.403Z,86.69
2018-08-06T02:02:46.791Z,86.63
2018-08-06T02:05:16.019Z,87.05
2018-08-06T02:07:45.260Z,87.26
2018-08-06T02:10:15.510Z,87.16
2018-08-06T02:12:45.308Z,87.48
2018-08-06T02:15:14.636Z,87.61
2018-08-06T02:17:51.809Z,87.87
2018-08-06T02:20:22.663Z,87.61
2018-08-06T02:22:54.139Z,87.52
2018-08-06T02:25:24.339Z,87.43
2018-08-06T02:27:53.657Z,87.61
2018-08-06T02:30:23.020Z,87.74
2018-08-06T02:32:52.426Z,87.84
2018-08-06T02:35:21.968Z,87.94
2018-08-06T02:37:51.448Z,88.09
2018-08-06T02:40:21.911Z,88.26
2018-08-06T02:42:51.228Z,87.95
2018-08-06T02:45:20.721Z,88.12
2018-08-06T02:47:50.284Z,88.33
2018-08-06T02:50:20.151Z,88.28
2018-08-06T02:52:49.657Z,88.65
2018-08-06T02:55:19.749Z,88.84
2018-08-06T02:57:49.272Z,88.90
2018-08-06T03:00:18.893Z,88.77
2018-08-06T03:02:48.648Z,89.09
2018-08-06T03:05:19.334Z,88.93
2018-08-06T03:07:48.836Z,88.86
2018-08-06T03:10:18.337Z,89.02
2018-08-06T03:12:48.048Z,88.81
2018-08-06T03:15:17.329Z,89.16
2018-08-06T03:17:47.291Z,88.95
2018-08-06T03:20:16.846Z,88.79
2018-08-06T03:22:46.134Z,88.90
2018-08-06T03:25:17.435Z,88.92
2018-08-06T03:27:46.674Z,88.46
2018-08-06T03:30:17.236Z,88.46
2018-08-06T03:32:48.170Z,88.40
2018-08-06T03:35:17.503Z,88.47
2018-08-06T03:37:47.059Z,88.31
2018-08-06T03:40:16.365Z,88.14
2018-08-06T03:42:46.505Z,88.18
2018-08-06T03:45:15.810Z,88.26
2018-08-06T03:47:45.107Z,88.24
2018-08-06T03:50:14.828Z,88.01
2018-08-06T03:52:45.122Z,87.80
2018-08-06T03:55:14.911Z,88.19
2018-08-06T03:57:44.178Z,88.20
2018-08-06T04:00:14.610Z,88.36
2018-08-06T04:02:44.555Z,87.91
2018-08-06T04:05:14.910Z,87.83
2018-08-06T04:07:44.169Z,87.60
2018-08-06T04:10:16.732Z,87.45
2018-08-06T04:12:46.311Z,87.46
2018-08-06T04:15:15.541Z,87.34
2018-08-06T04:17:45.304Z,87.62
2018-08-06T04:20:14.673Z,86.96
2018-08-06T04:22:44.351Z,86.88
2018-08-06T04:25:13.842Z,86.66
2018-08-06T04:27:43.059Z,86.55
2018-08-06T04:30:14.500Z,86.29
2018-08-06T04:32:45.943Z,86.49
2018-08-06T04:35:15.693Z,86.35
2018-08-06T04:37:45.600Z,86.58
2018-08-06T04:40:15.029Z,86.55
2018-08-06T04:42:44.672Z,86.89
2018-08-06T04:45:14.073Z,86.55
2018-08-06T04:47:43.429Z,86.30
2018-08-06T04:50:14.183Z,86.22
2018-08-06T04:52:44.554Z,86.40
2018-08-06T04:55:14.876Z,85.67
2018-08-06T04:57:44.354Z,85.67
2018-08-06T05:00:14.834Z,85.76
2018-08-06T05:02:44.685Z,84.81
2018-08-06T05:05:14.526Z,84.76
2018-08-06T05:07:43.789Z,84.72
2018-08-06T05:10:13.150Z,84.24
2018-08-06T05:12:42.480Z,84.87
2018-08-06T05:15:11.720Z,84.40
2018-08-06T05:17:41.014Z,85.10
2018-08-06T05:20:10.341Z,85.57
2018-08-06T05:22:39.614Z,84.79
2018-08-06T05:25:08.996Z,83.50
2018-08-06T05:27:38.366Z,83.42
2018-08-06T05:30:09.507Z,82.22
2018-08-06T05:32:38.921Z,82.59
2018-08-06T05:35:08.418Z,82.08
2018-08-06T05:37:37.654Z,81.76
2018-08-06T05:40:08.232Z,81.55
2018-08-06T05:42:38.121Z,81.37
2018-08-06T05:45:08.654Z,80.78
2018-08-06T05:47:38.294Z,81.17
2018-08-06T05:50:09.994Z,80.14
2018-08-06T05:52:39.237Z,80.03
2018-08-06T05:55:10.286Z,79.24
2018-08-06T05:57:39.942Z,79.42
2018-08-06T06:00:13.778Z,80.02
2018-08-06T06:02:43.516Z,78.62
2018-08-06T06:05:12.847Z,78.48
2018-08-06T06:07:42.336Z,77.77
2018-08-06T06:10:13.542Z,77.91
2018-08-06T06:12:42.859Z,77.78
2018-08-06T06:15:15.031Z,77.07
2018-08-06T06:17:44.542Z,77.91
2018-08-06T06:20:13.792Z,77.13
2018-08-06T06:22:43.154Z,76.31
2018-08-06T06:25:13.389Z,75.37
2018-08-06T06:27:43.073Z,75.85
2018-08-06T06:30:14.765Z,75.00
2018-08-06T06:32:44.093Z,75.62
2018-08-06T06:35:14.048Z,74.58
2018-08-06T06:37:43.845Z,74.12
2018-08-06T06:40:13.161Z,74.22
2018-08-06T06:42:42.678Z,73.54
2018-08-06T06:45:12.998Z,73.90
2018-08-06T06:47:42.498Z,72.88
2018-08-06T06:50:12.318Z,73.12
2018-08-06T06:52:42.498Z,72.51
2018-08-06T06:55:13.098Z,72.19
2018-08-06T06:57:44.654Z,71.68
2018-08-06T07:00:14.023Z,70.61
2018-08-06T07:02:45.056Z,71.23
2018-08-06T07:05:14.798Z,70.60
2018-08-06T07:07:44.165Z,69.21
2018-08-06T07:10:15.579Z,68.99
2018-08-06T07:12:45.058Z,69.18
2018-08-06T07:15:17.097Z,68.73
2018-08-06T07:17:48.228Z,68.11
2018-08-06T07:20:20.484Z,67.97
2018-08-06T07:22:50.986Z,68.16
2018-08-06T07:25:21.342Z,67.19
2018-08-06T07:27:50.920Z,67.40
2018-08-06T07:30:20.968Z,67.72
2018-08-06T07:32:51.220Z,67.71
2018-08-06T07:35:20.792Z,68.00
2018-08-06T07:37:50.833Z,67.61
2018-08-06T07:40:20.872Z,67.65
2018-08-06T07:42:50.501Z,66.72
2018-08-06T07:45:21.256Z,65.94
2018-08-06T07:47:52.208Z,65.13
2018-08-06T07:50:22.908Z,65.14
2018-08-06T07:52:54.211Z,64.79
2018-08-06T07:56:53.770Z,65.58
2018-08-06T07:59:24.020Z,66.06
2018-08-06T08:01:55.519Z,65.76
2018-08-06T08:04:25.592Z,65.54
2018-08-06T08:06:55.065Z,65.41
2018-08-06T08:09:25.047Z,65.77
2018-08-06T08:11:56.382Z,64.02
2018-08-06T08:14:27.041Z,63.28
2018-08-06T08:16:56.980Z,62.56
2018-08-06T08:19:26.946Z,63.04
2018-08-06T08:21:56.682Z,61.82
2018-08-06T08:24:27.627Z,60.08
2018-08-06T08:26:57.898Z,60.22
2018-08-06T08:29:30.310Z,59.87
2018-08-06T08:32:02.581Z,58.05
2018-08-06T08:34:32.265Z,57.78
2018-08-06T08:37:02.289Z,58.09
2018-08-06T08:39:31.670Z,57.64
2018-08-06T08:42:01.015Z,58.50
2018-08-06T08:44:30.468Z,57.08
2018-08-06T08:46:59.885Z,56.92
2018-08-06T08:49:29.478Z,58.15
2018-08-06T08:51:58.799Z,56.54
2018-08-06T08:54:28.210Z,56.59
2018-08-06T08:56:57.934Z,56.13
2018-08-06T08:59:27.554Z,56.11
2018-08-06T09:01:57.275Z,56.54
2018-08-06T09:04:27.079Z,54.50
2018-08-06T09:06:56.552Z,55.39
2018-08-06T09:09:26.199Z,54.45
2018-08-06T09:11:56.030Z,54.49
2018-08-06T09:14:25.468Z,54.62
2018-08-06T09:16:55.088Z,54.59
2018-08-06T09:19:24.715Z,53.72
2018-08-06T09:21:54.769Z,54.15
2018-08-06T09:24:24.366Z,52.78
2018-08-06T09:26:54.522Z,52.45
2018-08-06T09:29:24.047Z,52.68
2018-08-06T09:31:54.729Z,51.44
2018-08-06T09:34:24.623Z,51.02
2018-08-06T09:36:54.312Z,48.47
2018-08-06T09:39:23.963Z,47.29
2018-08-06T09:41:53.578Z,45.75
2018-08-06T09:44:23.622Z,42.87
2018-08-06T09:46:53.096Z,41.11
2018-08-06T09:49:24.617Z,37.76
2018-08-06T09:51:54.946Z,36.02
2018-08-06T09:54:25.661Z,35.00
2018-08-06T09:56:56.427Z,35.26
2018-08-06T09:59:26.953Z,34.66
2018-08-06T10:01:57.833Z,34.96
2018-08-06T10:04:30.169Z,33.47
2018-08-06T10:07:00.046Z,32.50
2018-08-06T10:09:30.101Z,31.02
2018-08-06T10:12:01.404Z,32.80
2018-08-06T10:14:31.602Z,33.85
2018-08-06T10:17:01.905Z,31.46
2018-08-06T10:19:33.161Z,30.22
2018-08-06T10:22:03.136Z,30.36
2018-08-06T10:24:33.949Z,30.97
2018-08-06T10:27:03.471Z,28.26
2018-08-06T10:29:32.786Z,25.70
2018-08-06T10:32:02.249Z,25.90
2018-08-06T10:34:32.023Z,25.45
2018-08-06T10:37:01.874Z,25.34
2018-08-06T10:39:32.415Z,26.43
2018-08-06T10:42:01.838Z,26.20
2018-08-06T10:44:31.658Z,27.59
2018-08-06T10:47:03.204Z,26.12
2018-08-06T10:49:33.336Z,27.31
2018-08-06T10:52:02.607Z,26.14
2018-08-06T10:54:32.021Z,26.39
2018-08-06T10:57:02.027Z,26.25
2018-08-06T10:59:31.560Z,26.41
2018-08-06T11:02:02.569Z,26.75
2018-08-06T11:04:32.665Z,26.68
2018-08-06T11:07:03.781Z,26.22
2018-08-06T11:09:34.119Z,26.84
2018-08-06T11:12:03.420Z,26.39
2018-08-06T11:14:32.965Z,26.63
2018-08-06T11:17:02.243Z,26.87
2018-08-06T11:19:31.675Z,27.10
2018-08-06T11:22:01.191Z,27.00
2018-08-06T11:24:30.692Z,26.92
2018-08-06T11:27:00.196Z,25.93
2018-08-06T11:29:29.877Z,25.93
2018-08-06T11:31:59.329Z,25.74
2018-08-06T11:34:29.007Z,26.11
2018-08-06T11:36:58.949Z,26.21
2018-08-06T11:39:28.388Z,26.85
2018-08-06T11:41:57.938Z,27.16
2018-08-06T11:44:27.688Z,25.29
2018-08-06T11:46:57.392Z,26.51
2018-08-06T11:49:27.269Z,26.00
2018-08-06T11:51:56.702Z,26.16
2018-08-06T11:54:26.436Z,25.71
2018-08-06T11:56:56.014Z,25.45
2018-08-06T11:59:25.526Z,26.13
2018-08-06T12:01:55.136Z,26.25
2018-08-06T12:04:24.832Z,27.04
2018-08-06T12:06:54.470Z,27.18
2018-08-06T12:09:24.054Z,26.45
2018-08-06T12:11:53.677Z,25.71
2018-08-06T12:14:23.275Z,25.42
2018-08-06T12:16:53.168Z,25.40
2018-08-06T12:19:22.692Z,25.32
2018-08-06T12:21:52.509Z,24.28
2018-08-06T12:24:22.011Z,23.61
2018-08-06T12:26:51.420Z,23.51
2018-08-06T12:29:20.925Z,23.54
2018-08-06T12:31:50.329Z,23.02
2018-08-06T12:34:20.757Z,22.98
2018-08-06T12:36:50.361Z,23.76
2018-08-06T12:39:19.749Z,23.01
2018-08-06T12:41:49.152Z,22.88
2018-08-06T12:44:18.771Z,22.32
2018-08-06T12:46:48.200Z,21.80
2018-08-06T12:49:17.481Z,22.47
2018-08-06T12:51:47.330Z,22.77
2018-08-06T12:54:16.542Z,22.67
2018-08-06T12:56:45.837Z,22.20
2018-08-06T12:59:15.137Z,22.53
2018-08-06T13:01:44.850Z,22.10
2018-08-06T13:04:14.606Z,21.79
2018-08-06T13:06:44.006Z,21.18
2018-08-06T13:09:14.024Z,21.36
2018-08-06T13:11:43.589Z,21.22
2018-08-06T13:14:13.039Z,21.43
2018-08-06T13:16:42.472Z,22.27
2018-08-06T13:19:12.394Z,21.06
2018-08-06T13:21:41.711Z,21.12
2018-08-06T13:24:11.245Z,21.25
2018-08-06T13:26:41.410Z,21.20
2018-08-06T13:29:10.915Z,20.37
2018-08-06T13:31:40.259Z,20.59
2018-08-06T13:34:09.631Z,21.48
2018-08-06T13:36:38.909Z,21.36
2018-08-06T13:39:10.439Z,20.21
2018-08-06T13:41:39.760Z,19.75
2018-08-06T13:44:09.774Z,19.12
2018-08-06T13:46:40.161Z,20.39
2018-08-06T13:49:09.394Z,20.37
2018-08-06T13:51:42.209Z,20.38
2018-08-06T13:54:11.869Z,21.04
2018-08-06T13:56:41.129Z,20.41
2018-08-06T13:59:10.436Z,20.25
2018-08-06T14:01:47.257Z,20.61
2018-08-06T14:04:18.190Z,20.37
2018-08-06T14:06:47.490Z,19.87
2018-08-06T14:09:17.112Z,20.33
2018-08-06T14:11:46.991Z,19.37
2018-08-06T14:14:16.300Z,19.24
2018-08-06T14:16:45.612Z,20.99
2018-08-06T14:19:14.935Z,20.43
2018-08-06T14:21:44.165Z,20.37
2018-08-06T14:24:13.432Z,20.67
2018-08-06T14:26:42.734Z,20.74
2018-08-06T14:29:12.032Z,20.44
2018-08-06T14:31:41.374Z,19.52
2018-08-06T14:34:10.783Z,20.36
2018-08-06T14:36:40.049Z,20.09
2018-08-06T14:39:11.584Z,19.13
2018-08-06T14:41:41.781Z,18.82
2018-08-06T14:44:11.248Z,19.46
2018-08-06T14:46:40.981Z,20.22
2018-08-06T14:49:10.452Z,20.24
2018-08-06T14:51:39.864Z,20.38
2018-08-06T14:54:10.206Z,20.16
2018-08-06T14:56:39.445Z,20.19
2018-08-06T14:59:08.807Z,20.30
2018-08-06T15:01:38.697Z,19.84
2018-08-06T15:04:08.154Z,20.85
2018-08-06T15:06:37.579Z,19.74
2018-08-06T15:09:10.256Z,19.97
2018-08-06T15:11:40.452Z,19.62
2018-08-06T15:14:09.816Z,19.92
2018-08-06T15:16:39.834Z,18.79
2018-08-06T15:19:09.195Z,19.52
2018-08-06T15:21:38.639Z,19.69
2018-08-06T15:24:08.228Z,19.81
2018-08-06T15:26:37.534Z,20.00
2018-08-06T15:29:06.863Z,20.03
2018-08-06T15:31:41.293Z,20.24
2018-08-06T15:34:15.600Z,20.59
2018-08-06T15:36:45.266Z,20.52
2018-08-06T15:39:15.585Z,19.89
2018-08-06T15:41:45.288Z,20.38
2018-08-06T15:44:14.817Z,20.38
2018-08-06T15:46:44.490Z,19.76
2018-08-06T15:49:20.003Z,20.69
2018-08-06T15:51:49.998Z,20.43
2018-08-06T15:54:20.627Z,20.16
2018-08-06T15:56:50.400Z,20.01
2018-08-06T15:59:19.820Z,20.01
2018-08-06T16:01:49.308Z,20.65
2018-08-06T16:04:19.073Z,21.41
2018-08-06T16:06:48.428Z,23.04
2018-08-06T16:09:17.860Z,24.23
2018-08-06T16:11:47.393Z,23.63
2018-08-06T16:14:16.772Z,25.03
2018-08-06T16:16:46.195Z,25.27
2018-08-06T16:19:16.578Z,27.16
2018-08-06T16:21:45.982Z,27.15
2018-08-06T16:24:15.374Z,28.41
2018-08-06T16:26:45.364Z,28.07
2018-08-06T16:29:14.770Z,28.30
2018-08-06T16:31:44.129Z,28.49
2018-08-06T16:34:13.804Z,28.15
2018-08-06T16:36:43.141Z,28.47
2018-08-06T16:39:13.961Z,28.82
2018-08-06T16:41:44.065Z,29.47
2018-08-06T16:44:13.377Z,27.91
2018-08-06T16:46:42.923Z,27.95
2018-08-06T16:49:12.211Z,28.10
2018-08-06T16:51:41.673Z,29.20
2018-08-06T16:54:12.082Z,28.58
2018-08-06T16:56:43.092Z,28.49
2018-08-06T16:59:12.365Z,28.90
2018-08-06T17:01:41.699Z,28.90
2018-08-06T17:04:11.348Z,29.92
2018-08-06T17:06:40.624Z,30.79
2018-08-06T17:09:10.376Z,30.72
2018-08-06T17:11:39.724Z,29.98
2018-08-06T17:14:09.988Z,30.96
2018-08-06T17:16:39.209Z,30.73
2018-08-06T17:19:08.562Z,30.11
2018-08-06T17:21:38.320Z,30.71
2018-08-06T17:24:07.628Z,29.66
2018-08-06T17:26:36.883Z,30.04
2018-08-06T17:29:06.417Z,29.70
2018-08-06T17:31:35.637Z,30.04
2018-08-06T17:34:05.403Z,29.44
2018-08-06T17:36:34.881Z,30.08
2018-08-06T17:39:06.904Z,30.66
2018-08-06T17:41:36.234Z,30.76
2018-08-06T17:44:05.795Z,30.81
2018-08-06T17:46:35.124Z,30.55
2018-08-06T17:49:06.470Z,31.54
2018-08-06T17:51:35.738Z,35.41
2018-08-06T17:54:05.683Z,38.63
2018-08-06T17:56:35.138Z,41.72
2018-08-06T17:59:04.492Z,44.33
2018-08-06T18:01:34.199Z,44.92
2018-08-06T18:04:03.813Z,44.73
2018-08-06T18:06:33.215Z,45.11
2018-08-06T18:09:02.504Z,45.38
2018-08-06T18:11:31.804Z,45.00
2018-08-06T18:14:01.016Z,44.99
2018-08-06T18:16:30.295Z,44.94
2018-08-06T18:19:00.317Z,45.16
2018-08-06T18:21:30.131Z,45.05
2018-08-06T18:23:59.548Z,46.23
2018-08-06T18:26:28.965Z,46.16
2018-08-06T18:28:58.284Z,45.76
2018-08-06T18:31:27.826Z,44.94
2018-08-06T18:33:57.727Z,44.83
2018-08-06T18:36:27.148Z,44.88
2018-08-06T18:38:56.570Z,45.04
2018-08-06T18:41:26.319Z,44.78
2018-08-06T18:43:56.980Z,45.08
2018-08-06T18:46:26.655Z,45.22
2018-08-06T18:48:56.279Z,45.86
2018-08-06T18:51:25.877Z,45.19
2018-08-06T18:53:55.654Z,45.60
2018-08-06T18:56:25.823Z,46.56
2018-08-06T18:58:55.312Z,46.22
2018-08-06T19:01:25.312Z,46.79
2018-08-06T19:03:55.020Z,46.88
2018-08-06T19:06:24.548Z,48.23
2018-08-06T19:08:54.160Z,48.12
2018-08-06T19:11:23.875Z,47.70
2018-08-06T19:13:58.719Z,48.76
2018-08-06T19:16:28.158Z,48.74
2018-08-06T19:19:29.012Z,49.10
2018-08-06T19:21:59.185Z,49.44
2018-08-06T19:24:33.816Z,49.21
2018-08-06T19:27:03.752Z,49.51
2018-08-06T19:29:33.062Z,49.61
2018-08-06T19:32:03.453Z,50.28
2018-08-06T19:34:32.875Z,50.96
2018-08-06T19:37:07.384Z,51.27
2018-08-06T19:39:36.947Z,51.25
2018-08-06T19:42:06.847Z,51.62
2018-08-06T19:44:36.249Z,51.35
2018-08-06T19:47:05.891Z,52.40
2018-08-06T19:49:40.472Z,52.09
2018-08-06T19:52:09.759Z,51.98
2018-08-06T19:54:39.093Z,51.87
2018-08-06T19:57:08.713Z,52.11
2018-08-06T19:59:38.297Z,52.34
2018-08-06T20:02:08.789Z,52.56
2018-08-06T20:04:38.132Z,53.09
2018-08-06T20:07:07.615Z,52.67
2018-08-06T20:09:38.212Z,51.67
2018-08-06T20:12:07.674Z,52.14
2018-08-06T20:14:37.011Z,53.06
2018-08-06T20:17:06.570Z,52.01
2018-08-06T20:19:35.909Z,52.53
2018-08-06T20:22:05.424Z,52.97
2018-08-06T20:24:34.936Z,52.43
2018-08-06T20:27:04.597Z,53.05
2018-08-06T20:29:34.133Z,53.19
2018-08-06T20:32:04.625Z,53.82
2018-08-06T20:34:34.025Z,52.29
2018-08-06T20:37:03.583Z,52.74
2018-08-06T20:39:33.454Z,52.62
2018-08-06T20:42:04.001Z,52.46
2018-08-06T20:44:33.322Z,52.96
2018-08-06T20:47:02.792Z,52.36
2018-08-06T20:49:32.345Z,52.86
2018-08-06T20:52:02.276Z,52.00
2018-08-06T20:54:31.559Z,52.20
2018-08-06T20:57:00.937Z,51.88
2018-08-06T20:59:30.539Z,52.72
2018-08-06T21:01:59.842Z,52.71
2018-08-06T21:04:29.121Z,52.68
2018-08-06T21:06:58.945Z,52.61
2018-08-06T21:09:28.307Z,53.67
2018-08-06T21:11:58.137Z,53.11
2018-08-06T21:14:27.822Z,53.28
2018-08-06T21:16:57.551Z,53.17
2018-08-06T21:19:27.430Z,53.30
2018-08-06T21:21:57.444Z,54.17
2018-08-06T21:24:27.233Z,54.80
2018-08-06T21:26:57.452Z,54.36
2018-08-06T21:29:27.043Z,54.18
2018-08-06T21:31:57.070Z,54.41
2018-08-06T21:34:26.706Z,54.92
2018-08-06T21:36:56.449Z,54.76
2018-08-06T21:39:26.077Z,54.43
2018-08-06T21:41:55.631Z,55.64
2018-08-06T21:44:25.202Z,56.21
2018-08-06T21:46:54.732Z,55.18
2018-08-06T21:49:24.645Z,56.59
2018-08-06T21:51:54.369Z,56.60
2018-08-06T21:54:23.814Z,57.10
2018-08-06T21:56:53.782Z,57.11
2018-08-06T21:59:23.458Z,57.79
2018-08-06T22:01:52.990Z,57.17
2018-08-06T22:04:23.575Z,57.75
2018-08-06T22:06:53.025Z,57.88
2018-08-06T22:09:22.559Z,58.32
2018-08-06T22:11:53.076Z,57.49
2018-08-06T22:14:22.536Z,58.59
2018-08-06T22:16:52.083Z,58.80
2018-08-06T22:19:21.722Z,59.16
2018-08-06T22:21:51.211Z,58.72
2018-08-06T22:24:20.812Z,59.47
2018-08-06T22:26:50.393Z,60.50
2018-08-06T22:29:20.746Z,60.52
2018-08-06T22:31:50.229Z,60.29
2018-08-06T22:34:20.279Z,60.51
2018-08-06T22:36:49.777Z,60.78
2018-08-06T22:39:19.940Z,60.65
2018-08-06T22:41:49.664Z,60.33
2018-08-06T22:44:19.108Z,60.63
2018-08-06T22:46:48.561Z,60.57
2018-08-06T22:49:18.145Z,61.41
2018-08-06T22:51:47.544Z,61.60
2018-08-06T22:54:17.980Z,61.13
2018-08-06T22:56:48.269Z,60.69
2018-08-06T22:59:17.592Z,61.12
2018-08-06T23:01:48.242Z,62.36
2018-08-06T23:04:17.615Z,62.32
2018-08-06T23:06:47.257Z,62.53
2018-08-06T23:09:16.803Z,63.27
2018-08-06T23:11:45.924Z,63.88
2018-08-06T23:14:15.400Z,64.82
2018-08-06T23:16:44.721Z,63.64
2018-08-06T23:19:13.946Z,64.63
2018-08-06T23:21:43.220Z,64.40
2018-08-06T23:24:12.639Z,64.68
2018-08-06T23:26:41.904Z,64.22
2018-08-06T23:29:11.178Z,64.95
2018-08-06T23:31:41.649Z,64.36
2018-08-06T23:34:10.881Z,64.97
2018-08-06T23:36:40.144Z,65.47
2018-08-06T23:39:10.346Z,65.50
2018-08-06T23:41:39.712Z,66.66
2018-08-06T23:44:08.991Z,66.64
2018-08-06T23:46:38.510Z,67.18
2018-08-06T23:49:07.795Z,67.19
2018-08-06T23:51:37.121Z,66.61
2018-08-06T23:54:06.610Z,65.65
2018-08-06T23:56:35.926Z,66.54
2018-08-06T23:59:05.802Z,66.73
